Time;durP1;ratioP1;P1;durP2;ratioP2;P2;SDS_P1;SDS_P2;PMS_P1;PMS_P2;Temp;Humidity;BMP_temperature;BMP_pressure;BME280_temperature;BME280_humidity;BME280_pressure;Samples;Min_cycle;Max_cycle;Signal;HPM_P1;HPM_P2
2023/03/06 00:03:05;;;;;;;26.63;17.30;;;6.20;89.60;;;;;;10528927;28;20218;-78
2023/03/06 00:08:09;;;;;;;16.30;14.50;;;6.20;89.60;;;;;;10534605;28;20207;-79
2023/03/06 00:13:12;;;;;;;20.17;16.17;;;6.20;89.50;;;;;;10527334;28;20193;-78
2023/03/06 00:18:15;;;;;;;23.37;17.73;;;6.30;88.50;;;;;;10497437;28;20234;-78
2023/03/06 00:23:18;;;;;;;23.43;19.03;;;6.30;88.30;;;;;;10494705;28;20203;-77
2023/03/06 00:28:20;;;;;;;21.03;18.63;;;6.20;88.00;;;;;;10556095;28;20261;-78
2023/03/06 00:33:23;;;;;;;24.33;18.40;;;6.20;87.80;;;;;;10576468;28;20283;-77
2023/03/06 00:38:27;;;;;;;20.13;16.37;;;6.20;87.30;;;;;;10535460;28;20593;-78
2023/03/06 00:43:31;;;;;;;20.50;17.13;;;6.20;86.90;;;;;;10576908;28;20206;-78
2023/03/06 00:48:33;;;;;;;20.60;16.50;;;6.20;87.00;;;;;;10558138;28;20673;-78
2023/03/06 00:53:37;;;;;;;22.27;16.70;;;6.20;87.00;;;;;;10536907;28;20204;-78
2023/03/06 00:58:42;;;;;;;21.53;17.47;;;6.30;87.80;;;;;;10533566;28;20391;-79
2023/03/06 01:03:44;;;;;;;18.13;16.23;;;6.40;87.40;;;;;;10541934;28;20649;-78
2023/03/06 01:08:47;;;;;;;20.83;17.80;;;6.40;88.30;;;;;;10556980;28;20592;-78
2023/03/06 01:13:49;;;;;;;22.33;17.67;;;6.50;89.20;;;;;;10526635;28;20204;-78
2023/03/06 01:18:51;;;;;;;23.53;17.73;;;6.50;88.50;;;;;;10566176;28;20270;-77
2023/03/06 01:23:55;;;;;;;20.00;16.70;;;6.60;88.30;;;;;;10562893;28;20185;-78
2023/03/06 01:28:59;;;;;;;20.57;17.17;;;6.70;88.90;;;;;;10570212;28;20221;-79
2023/03/06 01:34:04;;;;;;;18.73;15.80;;;6.80;88.30;;;;;;10603802;28;20215;-78
2023/03/06 01:39:07;;;;;;;22.20;18.37;;;6.80;88.10;;;;;;10598279;28;20232;-77
2023/03/06 01:44:12;;;;;;;19.47;16.40;;;6.90;87.10;;;;;;10579478;28;20190;-78
2023/03/06 01:49:20;;;;;;;25.07;16.30;;;6.90;87.50;;;;;;10545982;28;20220;-78
2023/03/06 01:54:26;;;;;;;22.87;17.07;;;6.80;87.70;;;;;;10506221;28;20601;-79
2023/03/06 01:59:30;;;;;;;19.10;16.40;;;6.80;88.50;;;;;;10552010;28;20226;-79
2023/03/06 02:04:33;;;;;;;20.80;15.20;;;6.70;87.80;;;;;;10585584;28;20196;-79
2023/03/06 02:09:37;;;;;;;14.70;12.73;;;6.80;87.60;;;;;;10582572;28;20271;-77
2023/03/06 02:14:41;;;;;;;20.77;15.87;;;6.80;86.20;;;;;;10507249;28;20208;-78
2023/03/06 02:19:52;;;;;;;19.17;15.70;;;6.90;86.90;;;;;;10555923;28;20216;-78
2023/03/06 02:25:02;;;;;;;18.97;15.57;;;6.80;87.50;;;;;;10589911;28;20196;-79
2023/03/06 02:30:08;;;;;;;18.30;15.87;;;6.80;86.20;;;;;;10585234;28;20223;-80
2023/03/06 02:35:19;;;;;;;18.30;15.33;;;6.70;86.60;;;;;;10532872;28;20219;-77
2023/03/06 02:40:23;;;;;;;19.70;16.70;;;6.50;87.70;;;;;;10558667;22;20258;-83
2023/03/06 02:45:36;;;;;;;19.23;16.00;;;6.40;87.90;;;;;;10510727;28;20199;-82
2023/03/06 02:50:38;;;;;;;65.30;31.30;;;6.40;88.50;;;;;;10470899;28;20707;-83
2023/03/06 02:55:46;;;;;;;18.27;15.73;;;6.30;87.90;;;;;;10483983;28;20205;-83
2023/03/06 03:00:56;;;;;;;18.80;16.40;;;6.30;87.40;;;;;;10526611;28;20213;-83
2023/03/06 03:06:08;;;;;;;20.10;15.40;;;6.20;88.00;;;;;;10469238;28;20217;-83
2023/03/06 03:11:15;;;;;;;18.03;15.40;;;6.20;88.10;;;;;;10527693;28;20199;-83
2023/03/06 03:16:24;;;;;;;18.67;15.00;;;6.20;88.40;;;;;;10511703;28;20225;-83
2023/03/06 03:21:29;;;;;;;19.50;16.73;;;6.10;88.60;;;;;;10529663;28;20659;-82
2023/03/06 03:26:34;;;;;;;16.80;14.50;;;6.10;88.20;;;;;;10488254;28;20250;-83
2023/03/06 03:31:53;;;;;;;18.70;14.90;;;6.10;88.40;;;;;;10525463;28;20198;-83
2023/03/06 03:37:05;;;;;;;16.10;14.33;;;6.00;88.00;;;;;;10475903;28;20470;-83
2023/03/06 03:42:17;;;;;;;16.53;14.80;;;5.90;89.40;;;;;;10475051;28;20231;-83
2023/03/06 03:47:31;;;;;;;16.90;14.60;;;6.00;88.20;;;;;;10507813;28;20241;-83
2023/03/06 03:52:38;;;;;;;18.03;13.80;;;5.90;88.40;;;;;;10507616;28;20197;-83
2023/03/06 03:57:51;;;;;;;16.83;14.27;;;5.90;88.20;;;;;;10516034;28;20239;-82
2023/03/06 04:03:07;;;;;;;14.70;13.20;;;5.90;88.30;;;;;;10491952;28;20201;-83
2023/03/06 04:08:22;;;;;;;16.53;14.30;;;5.90;88.20;;;;;;10487919;28;20248;-83
2023/03/06 04:13:37;;;;;;;14.53;12.87;;;5.80;89.20;;;;;;10476289;28;20630;-82
2023/03/06 04:18:47;;;;;;;15.03;13.40;;;5.80;88.60;;;;;;10482914;28;20306;-82
2023/03/06 04:24:05;;;;;;;14.67;12.90;;;6.00;88.60;;;;;;10499771;28;20199;-82
2023/03/06 04:29:21;;;;;;;16.10;14.27;;;6.10;87.80;;;;;;10498900;28;20214;-82
2023/03/06 04:34:25;;;;;;;15.63;13.03;;;6.10;88.00;;;;;;10492829;28;20204;-82
2023/03/06 04:39:27;;;;;;;15.17;13.57;;;6.10;87.40;;;;;;10508692;28;20722;-83
2023/03/06 04:44:30;;;;;;;15.33;13.00;;;6.10;87.70;;;;;;10516725;28;20193;-82
2023/03/06 04:49:34;;;;;;;14.23;12.47;;;6.10;88.00;;;;;;10525780;28;20215;-82
2023/03/06 04:54:45;;;;;;;14.33;12.93;;;6.10;87.10;;;;;;10501972;28;20203;-82
2023/03/06 05:00:23;;;;;;;13.87;12.43;;;6.00;87.40;;;;;;10491566;28;20223;-83
2023/03/06 05:05:33;;;;;;;13.43;12.03;;;6.00;87.10;;;;;;10519347;28;20192;-83
2023/03/06 05:10:35;;;;;;;15.43;13.20;;;6.00;87.90;;;;;;10511317;28;20217;-83
2023/03/06 05:15:39;;;;;;;13.10;11.80;;;6.10;87.30;;;;;;10490241;28;20576;-83
2023/03/06 05:20:43;;;;;;;13.53;12.23;;;6.10;86.10;;;;;;10519581;28;20696;-83
2023/03/06 05:25:45;;;;;;;14.00;12.50;;;6.10;86.70;;;;;;10516335;28;20602;-83
2023/03/06 05:30:47;;;;;;;13.67;12.20;;;6.20;86.40;;;;;;10492374;28;20205;-82
2023/03/06 05:35:51;;;;;;;14.27;12.70;;;6.30;86.80;;;;;;10489930;28;20754;-83
2023/03/06 05:40:53;;;;;;;16.17;11.20;;;6.30;85.70;;;;;;10498191;28;20208;-83
2023/03/06 05:46:08;;;;;;;12.27;11.00;;;6.40;85.80;;;;;;10518285;28;20196;-83
2023/03/06 05:51:12;;;;;;;13.00;11.60;;;6.40;85.10;;;;;;10486002;28;20197;-80
2023/03/06 05:56:14;;;;;;;12.70;11.40;;;6.40;85.90;;;;;;10507252;28;20724;-80
2023/03/06 06:01:19;;;;;;;13.23;11.00;;;6.40;86.10;;;;;;10495883;28;20194;-80
2023/03/06 06:06:23;;;;;;;13.70;11.80;;;6.50;84.90;;;;;;10519569;28;20721;-80
2023/03/06 06:11:25;;;;;;;13.70;11.60;;;6.50;84.50;;;;;;10540616;28;20204;-80
2023/03/06 06:16:27;;;;;;;15.73;10.90;;;6.50;84.50;;;;;;10488099;28;20220;-80
2023/03/06 06:21:30;;;;;;;12.73;11.50;;;6.40;84.80;;;;;;10508162;28;20189;-80
2023/03/06 06:26:32;;;;;;;13.17;11.43;;;6.40;85.30;;;;;;10478403;28;20274;-81
2023/03/06 06:31:36;;;;;;;14.03;11.70;;;6.40;85.20;;;;;;10501826;28;20267;-80
2023/03/06 06:36:40;;;;;;;12.17;10.97;;;6.50;83.70;;;;;;10536464;28;20590;-81
2023/03/06 06:41:43;;;;;;;13.43;12.03;;;6.50;82.50;;;;;;10491169;28;20193;-80
2023/03/06 06:46:46;;;;;;;12.57;11.27;;;6.50;82.90;;;;;;10519408;28;20220;-81
2023/03/06 06:51:49;;;;;;;15.00;13.10;;;6.50;83.10;;;;;;10493428;28;20220;-81
2023/03/06 06:56:51;;;;;;;13.30;11.43;;;6.50;83.30;;;;;;10499364;28;20223;-80
2023/03/06 07:01:56;;;;;;;14.37;12.27;;;6.50;82.20;;;;;;10510310;28;20196;-81
2023/03/06 07:07:00;;;;;;;12.73;11.53;;;6.50;82.50;;;;;;10500070;28;20280;-80
2023/03/06 07:12:02;;;;;;;14.70;11.50;;;6.60;82.70;;;;;;10523652;28;20201;-80
2023/03/06 07:17:04;;;;;;;12.20;10.90;;;6.60;82.40;;;;;;10518700;28;20217;-80
2023/03/06 07:22:07;;;;;;;13.00;11.60;;;6.70;82.70;;;;;;10513553;28;20666;-80
2023/03/06 07:27:09;;;;;;;13.40;12.00;;;6.70;81.70;;;;;;10488364;28;20593;-81
2023/03/06 07:32:14;;;;;;;12.27;10.97;;;6.80;81.90;;;;;;10501831;28;20227;-82
2023/03/06 07:37:17;;;;;;;12.73;11.43;;;6.90;82.40;;;;;;10505906;28;20224;-81
2023/03/06 07:42:20;;;;;;;8.97;8.10;;;6.90;81.20;;;;;;10502811;28;20669;-81
2023/03/06 07:47:31;;;;;;;14.03;12.50;;;7.00;82.70;;;;;;10469147;28;20307;-80
2023/03/06 07:52:35;;;;;;;17.73;12.80;;;7.10;82.10;;;;;;10478307;28;20231;-81
2023/03/06 07:57:37;;;;;;;14.60;12.50;;;7.20;83.10;;;;;;10502292;28;20282;-81
2023/03/06 08:02:39;;;;;;;14.13;12.03;;;7.30;81.70;;;;;;10503743;28;20307;-81
2023/03/06 08:07:45;;;;;;;12.53;11.17;;;7.40;82.70;;;;;;10510953;28;20204;-81
2023/03/06 08:12:47;;;;;;;12.43;11.17;;;7.50;80.80;;;;;;10489280;28;20194;-81
2023/03/06 08:17:51;;;;;;;11.60;10.40;;;7.50;82.10;;;;;;10491885;28;20223;-81
2023/03/06 08:22:54;;;;;;;12.80;11.10;;;7.60;81.80;;;;;;10493248;28;20229;-80
2023/03/06 08:27:56;;;;;;;12.50;10.63;;;7.60;81.40;;;;;;10506366;28;20209;-81
2023/03/06 08:33:00;;;;;;;12.93;10.70;;;7.70;79.90;;;;;;10501500;28;20211;-81
2023/03/06 08:38:03;;;;;;;12.87;8.93;;;7.80;78.90;;;;;;10492683;28;20222;-81
2023/03/06 08:44:01;;;;;;;12.50;11.27;;;7.80;81.10;;;;;;10494216;28;20204;-81
2023/03/06 08:49:11;;;;;;;10.53;9.40;;;7.90;81.70;;;;;;10387762;28;20285;-82
2023/03/06 08:54:15;;;;;;;10.63;9.03;;;8.10;80.90;;;;;;10406851;28;20252;-82
2023/03/06 08:59:24;;;;;;;10.10;9.10;;;8.10;80.40;;;;;;10504683;28;20218;-82
2023/03/06 09:04:32;;;;;;;9.60;8.17;;;8.30;79.40;;;;;;10484175;28;20197;-82
2023/03/06 09:15:45;;;;;;;9.83;8.83;;;8.50;79.80;;;;;;10296228;28;20223;-81
2023/03/06 09:26:39;;;;;;;11.57;9.27;;;8.80;78.80;;;;;;10369889;28;20226;-82
2023/03/06 09:31:45;;;;;;;8.70;7.93;;;8.90;79.00;;;;;;10369425;28;20199;-81
2023/03/06 09:36:47;;;;;;;8.80;8.00;;;9.00;78.30;;;;;;10509100;28;20225;-82
2023/03/06 09:41:51;;;;;;;8.27;7.47;;;9.00;78.50;;;;;;10511336;28;20309;-82
2023/03/06 09:47:12;;;;;;;8.97;8.07;;;9.00;77.70;;;;;;10497631;28;20213;-82
2023/03/06 09:53:02;;;;;;;8.83;8.03;;;9.00;77.80;;;;;;10504193;28;20250;-82
2023/03/06 09:58:30;;;;;;;8.60;7.80;;;8.90;78.10;;;;;;10492534;28;20325;-82
2023/03/06 10:03:45;;;;;;;9.07;8.20;;;8.80;78.40;;;;;;10503462;28;20193;-82
2023/03/06 10:08:51;;;;;;;8.80;8.00;;;8.90;78.60;;;;;;10483498;28;20287;-81
2023/03/06 10:14:10;;;;;;;8.53;7.67;;;9.00;78.70;;;;;;10482127;28;20608;-82
2023/03/06 10:19:16;;;;;;;9.43;8.40;;;9.10;78.50;;;;;;10506768;28;20620;-82
2023/03/06 10:24:38;;;;;;;9.90;8.23;;;9.10;78.70;;;;;;10521651;28;20202;-82
2023/03/06 10:29:52;;;;;;;8.30;7.60;;;9.20;76.30;;;;;;10484369;28;20205;-82
2023/03/06 10:34:59;;;;;;;9.13;8.23;;;9.00;79.00;;;;;;10522334;28;20233;-81
2023/03/06 10:40:06;;;;;;;9.00;8.20;;;9.00;77.60;;;;;;10500979;28;20226;-81
2023/03/06 10:45:15;;;;;;;8.57;7.70;;;9.00;79.40;;;;;;10501417;28;20198;-82
2023/03/06 10:50:44;;;;;;;9.53;7.80;;;9.00;78.60;;;;;;10496435;28;20217;-82
2023/03/06 10:55:52;;;;;;;8.40;7.70;;;9.10;78.00;;;;;;10501489;28;20655;-81
2023/03/06 11:01:05;;;;;;;8.80;7.90;;;9.10;76.40;;;;;;10494982;28;20207;-82
2023/03/06 11:06:11;;;;;;;16.63;9.87;;;9.10;77.10;;;;;;10504973;28;20304;-82
2023/03/06 11:11:23;;;;;;;13.27;11.97;;;9.10;77.80;;;;;;10509444;28;20756;-82
2023/03/06 11:16:29;;;;;;;9.27;8.47;;;9.20;76.20;;;;;;10507001;28;20644;-82
2023/03/06 11:21:33;;;;;;;8.77;7.97;;;9.20;77.80;;;;;;10496740;28;20630;-82
2023/03/06 11:26:41;;;;;;;10.00;8.93;;;9.30;77.70;;;;;;10500430;28;20616;-81
2023/03/06 11:31:49;;;;;;;10.40;9.40;;;9.40;76.90;;;;;;10485855;28;20250;-81
2023/03/06 11:37:00;;;;;;;9.23;8.43;;;9.50;76.60;;;;;;10492151;28;20226;-81
2023/03/06 11:42:09;;;;;;;8.27;7.47;;;9.60;76.20;;;;;;10493228;28;20191;-81
2023/03/06 11:47:23;;;;;;;8.87;7.97;;;9.70;76.20;;;;;;10502990;28;20213;-81
2023/03/06 11:53:07;;;;;;;8.37;7.63;;;9.80;75.60;;;;;;10498917;28;20725;-82
2023/03/06 11:59:28;;;;;;;8.27;7.50;;;9.90;73.90;;;;;;10511733;28;20596;-81
2023/03/06 12:04:41;;;;;;;11.27;10.17;;;10.00;71.90;;;;;;10434193;28;20228;-82
2023/03/06 12:17:00;;;;;;;8.40;7.70;;;10.10;71.90;;;;;;10404010;28;20196;-82
2023/03/06 12:22:21;;;;;;;8.87;7.97;;;10.10;72.70;;;;;;10443882;28;20205;-81
2023/03/06 12:27:31;;;;;;;9.07;7.90;;;10.20;72.50;;;;;;10460515;28;20217;-82
2023/03/06 12:32:44;;;;;;;9.00;8.20;;;10.20;71.30;;;;;;10443781;28;20201;-81
2023/03/06 12:37:58;;;;;;;10.00;9.10;;;10.30;71.40;;;;;;10437594;28;20232;-81
2023/03/06 12:43:26;;;;;;;8.67;7.87;;;10.30;71.10;;;;;;10455240;28;20258;-82
2023/03/06 12:48:36;;;;;;;9.27;8.47;;;10.20;69.70;;;;;;10459202;28;20234;-82
2023/03/06 12:53:41;;;;;;;9.43;8.63;;;10.10;69.60;;;;;;10460177;28;20672;-82
2023/03/06 13:05:02;;;;;;;9.30;8.33;;;10.00;69.60;;;;;;10450669;28;20205;-82
2023/03/06 13:10:21;;;;;;;9.23;8.43;;;9.90;72.00;;;;;;10524037;23;20237;-82
2023/03/06 13:15:39;;;;;;;9.53;8.63;;;10.00;71.40;;;;;;10536044;28;20778;-82
2023/03/06 13:20:43;;;;;;;9.40;8.40;;;10.00;70.10;;;;;;10497510;28;20231;-82
2023/03/06 13:31:08;;;;;;;10.23;9.27;;;9.90;71.30;;;;;;10584090;22;20233;-81
2023/03/06 13:36:26;;;;;;;13.13;11.57;;;9.90;71.40;;;;;;10549927;28;20246;-81
2023/03/06 13:41:57;;;;;;;8.50;7.70;;;9.80;71.40;;;;;;10474036;28;20295;-81
2023/03/06 13:47:04;;;;;;;8.43;7.57;;;9.90;72.10;;;;;;10493181;28;20227;-81
2023/03/06 13:52:10;;;;;;;8.07;7.27;;;9.90;71.70;;;;;;10529426;28;20200;-81
2023/03/06 13:57:34;;;;;;;8.40;7.47;;;9.90;70.50;;;;;;10529874;28;20266;-81
2023/03/06 14:03:00;;;;;;;16.97;14.87;;;9.80;70.40;;;;;;10547428;28;20673;-81
2023/03/06 14:08:10;;;;;;;7.87;7.17;;;9.80;70.90;;;;;;10525721;28;20212;-80
2023/03/06 14:13:19;;;;;;;7.70;6.93;;;9.80;72.20;;;;;;10528450;28;20745;-81
2023/03/06 14:18:26;;;;;;;8.47;7.57;;;9.80;70.40;;;;;;10546992;28;20221;-81
2023/03/06 14:23:31;;;;;;;7.17;6.43;;;9.80;70.20;;;;;;10512864;28;20224;-81
2023/03/06 14:28:35;;;;;;;7.70;7.03;;;9.80;69.80;;;;;;10619918;22;20225;-81
2023/03/06 14:33:44;;;;;;;9.27;7.87;;;9.80;69.60;;;;;;10614464;27;20319;-81
2023/03/06 14:38:49;;;;;;;10.13;8.07;;;9.70;68.70;;;;;;10570877;22;20317;-77
2023/03/06 14:43:52;;;;;;;8.50;7.70;;;9.60;70.20;;;;;;10540108;28;20234;-77
2023/03/06 14:48:59;;;;;;;10.20;8.17;;;9.50;68.40;;;;;;10534796;28;20201;-78
2023/03/06 14:54:02;;;;;;;8.57;7.77;;;9.50;69.40;;;;;;10528103;28;20232;-79
2023/03/06 14:59:08;;;;;;;8.03;7.33;;;9.40;68.30;;;;;;10489794;28;20222;-77
2023/03/06 15:04:23;;;;;;;8.40;7.70;;;9.30;69.50;;;;;;10495671;28;20668;-78
2023/03/06 15:09:28;;;;;;;8.67;7.87;;;9.20;68.80;;;;;;10494402;28;20217;-78
2023/03/06 15:14:40;;;;;;;7.97;7.20;;;9.20;69.40;;;;;;10497871;28;20206;-79
2023/03/06 15:19:45;;;;;;;9.50;8.50;;;9.20;70.30;;;;;;10479705;28;20226;-78
2023/03/06 15:24:48;;;;;;;8.60;7.80;;;9.30;69.20;;;;;;10528730;28;20615;-79
2023/03/06 15:29:50;;;;;;;8.43;7.60;;;9.20;69.50;;;;;;10512927;28;20304;-78
2023/03/06 15:35:27;;;;;;;9.77;8.87;;;9.10;70.80;;;;;;10486663;28;20198;-78
2023/03/06 15:40:30;;;;;;;9.10;8.20;;;9.00;70.80;;;;;;10458885;28;20311;-78
2023/03/06 15:45:35;;;;;;;10.50;9.50;;;9.00;69.50;;;;;;10507246;28;20241;-79
2023/03/06 15:50:38;;;;;;;10.70;8.53;;;8.90;69.50;;;;;;10498417;28;20716;-79
2023/03/06 15:55:40;;;;;;;9.80;8.90;;;8.70;71.80;;;;;;10507890;28;20227;-78
2023/03/06 16:00:43;;;;;;;10.20;9.20;;;8.60;72.20;;;;;;10506050;28;20275;-78
2023/03/06 16:05:46;;;;;;;9.77;8.83;;;8.50;74.00;;;;;;10496268;28;20197;-79
2023/03/06 16:10:50;;;;;;;10.20;9.13;;;8.50;74.00;;;;;;10536528;28;20216;-78
2023/03/06 16:15:53;;;;;;;9.80;8.90;;;8.40;75.20;;;;;;10524215;28;20290;-78
2023/03/06 16:20:56;;;;;;;9.17;8.23;;;8.30;76.80;;;;;;10517499;28;20311;-78
2023/03/06 16:25:58;;;;;;;11.30;9.53;;;8.10;78.40;;;;;;10498596;28;20247;-78
2023/03/06 16:31:00;;;;;;;9.87;8.97;;;8.10;78.00;;;;;;10518185;28;20310;-78
2023/03/06 16:36:10;;;;;;;10.50;9.47;;;8.10;78.70;;;;;;10518560;28;20233;-79
2023/03/06 16:41:13;;;;;;;10.53;9.10;;;8.10;79.50;;;;;;10517369;28;20229;-78
2023/03/06 16:46:17;;;;;;;12.80;10.80;;;8.10;80.00;;;;;;10488432;28;20234;-78
2023/03/06 16:51:22;;;;;;;11.03;10.03;;;8.10;78.20;;;;;;10520972;28;20307;-79
2023/03/06 16:56:24;;;;;;;10.37;9.27;;;8.00;80.00;;;;;;10499359;28;20284;-78
2023/03/06 17:01:26;;;;;;;9.67;8.77;;;8.00;80.50;;;;;;10503472;28;20695;-78
2023/03/06 17:06:30;;;;;;;11.10;10.07;;;8.00;82.00;;;;;;10519344;28;20196;-78
2023/03/06 17:11:32;;;;;;;12.03;10.83;;;8.10;81.70;;;;;;10503564;28;20243;-78
2023/03/06 17:16:35;;;;;;;11.20;10.10;;;8.10;82.00;;;;;;10511856;28;20249;-77
2023/03/06 17:21:39;;;;;;;11.37;9.67;;;8.10;82.80;;;;;;10513559;28;20691;-78
2023/03/06 17:26:42;;;;;;;12.23;10.57;;;8.10;83.80;;;;;;10510268;28;20220;-77
2023/03/06 17:31:45;;;;;;;12.40;11.10;;;8.10;85.20;;;;;;10531219;28;20231;-77
2023/03/06 17:36:49;;;;;;;12.70;10.47;;;8.10;86.40;;;;;;10513148;28;20748;-78
2023/03/06 17:41:51;;;;;;;11.63;10.53;;;8.00;87.90;;;;;;10530269;28;20226;-76
2023/03/06 17:46:53;;;;;;;12.10;11.00;;;8.00;87.70;;;;;;10510808;28;20227;-78
2023/03/06 17:51:58;;;;;;;12.70;11.40;;;7.90;89.70;;;;;;10513316;28;20259;-77
2023/03/06 17:57:04;;;;;;;12.53;11.33;;;7.90;89.30;;;;;;10512668;28;20232;-77
2023/03/06 18:02:06;;;;;;;14.00;12.50;;;7.80;89.60;;;;;;10466560;28;20231;-79
2023/03/06 18:07:10;;;;;;;12.20;11.07;;;7.80;89.70;;;;;;10492615;28;20229;-78
2023/03/06 18:12:12;;;;;;;13.07;11.77;;;7.70;89.50;;;;;;10526945;28;20203;-78
2023/03/06 18:17:14;;;;;;;13.97;11.80;;;7.70;89.50;;;;;;10521144;28;20312;-78
2023/03/06 18:22:18;;;;;;;13.30;12.00;;;7.70;89.70;;;;;;10506968;28;20224;-79
2023/03/06 18:27:20;;;;;;;13.57;12.17;;;7.70;87.60;;;;;;10532103;28;20220;-78
2023/03/06 18:32:22;;;;;;;20.90;18.30;;;7.70;87.70;;;;;;10533880;28;20205;-78
2023/03/06 18:37:28;;;;;;;12.43;11.23;;;7.70;87.60;;;;;;10494173;28;20222;-78
2023/03/06 18:42:30;;;;;;;12.77;11.27;;;7.70;86.80;;;;;;10535911;28;20215;-78
2023/03/06 18:47:33;;;;;;;15.77;13.10;;;7.70;86.90;;;;;;10489080;28;20218;-77
2023/03/06 18:52:39;;;;;;;14.10;12.53;;;7.70;87.90;;;;;;10512243;28;20188;-77
2023/03/06 18:57:43;;;;;;;13.80;12.47;;;7.70;86.30;;;;;;10516897;28;20255;-78
2023/03/06 19:02:45;;;;;;;13.37;11.97;;;7.60;85.80;;;;;;10524442;28;20260;-77
2023/03/06 19:07:48;;;;;;;13.67;12.27;;;7.70;86.40;;;;;;10506875;28;20697;-78
2023/03/06 19:12:50;;;;;;;12.90;11.60;;;7.70;85.10;;;;;;10499529;28;20205;-78
2023/03/06 19:17:52;;;;;;;12.77;11.43;;;7.60;85.10;;;;;;10500063;28;20228;-79
2023/03/06 19:22:56;;;;;;;13.63;12.23;;;7.60;84.20;;;;;;10501299;28;20277;-78
2023/03/06 19:27:58;;;;;;;13.90;12.53;;;7.60;84.30;;;;;;10496864;28;20224;-79
2023/03/06 19:33:00;;;;;;;15.60;12.33;;;7.60;83.70;;;;;;10503125;28;20224;-78
2023/03/06 19:38:04;;;;;;;14.20;12.83;;;7.60;83.90;;;;;;10501128;28;20265;-78
2023/03/06 19:43:07;;;;;;;12.60;11.40;;;7.70;82.60;;;;;;10500102;28;20228;-78
2023/03/06 19:48:12;;;;;;;13.23;11.93;;;7.60;83.60;;;;;;10483093;28;20251;-80
2023/03/06 19:53:17;;;;;;;14.03;12.57;;;7.60;82.50;;;;;;10483305;28;20218;-79
2023/03/06 19:58:20;;;;;;;13.73;12.33;;;7.60;82.30;;;;;;10469656;28;20221;-81
2023/03/06 20:03:22;;;;;;;16.60;15.00;;;7.60;81.40;;;;;;10502324;28;20259;-80
2023/03/06 20:08:25;;;;;;;14.57;12.37;;;7.50;83.00;;;;;;10471321;28;20247;-80
2023/03/06 20:13:28;;;;;;;13.53;12.13;;;7.50;81.60;;;;;;10481774;28;20646;-81
2023/03/06 20:18:30;;;;;;;12.30;11.10;;;7.40;81.80;;;;;;10501953;28;20284;-81
2023/03/06 20:23:36;;;;;;;14.23;12.83;;;7.40;81.90;;;;;;10489525;28;20227;-80
2023/03/06 20:28:39;;;;;;;15.73;12.93;;;7.40;81.00;;;;;;10474022;28;20625;-81
2023/03/06 20:33:41;;;;;;;14.17;12.67;;;7.40;80.30;;;;;;10498087;28;20610;-82
2023/03/06 20:38:45;;;;;;;13.23;11.17;;;7.30;80.50;;;;;;10521616;28;20477;-81
2023/03/06 20:43:47;;;;;;;14.23;12.83;;;7.30;80.20;;;;;;10483806;28;20204;-79
2023/03/06 20:48:51;;;;;;;13.30;12.00;;;7.20;80.30;;;;;;10495938;28;20253;-82
2023/03/06 20:53:55;;;;;;;14.00;12.50;;;7.20;80.80;;;;;;10489460;28;20283;-78
2023/03/06 20:58:58;;;;;;;14.13;12.60;;;7.10;80.90;;;;;;10495235;28;20620;-78
2023/03/06 21:04:01;;;;;;;12.67;11.47;;;7.10;80.00;;;;;;10512969;28;20673;-79
2023/03/06 21:09:06;;;;;;;13.57;11.50;;;7.10;80.20;;;;;;10515551;28;20218;-78
2023/03/06 21:14:08;;;;;;;14.63;12.67;;;7.10;80.50;;;;;;10528665;28;20204;-79
2023/03/06 21:19:10;;;;;;;15.10;11.37;;;7.00;80.00;;;;;;10546896;28;20244;-78
2023/03/06 21:24:14;;;;;;;16.43;11.93;;;7.00;80.00;;;;;;10499714;28;20206;-79
2023/03/06 21:29:16;;;;;;;13.50;11.50;;;7.00;80.10;;;;;;10510262;28;20628;-79
2023/03/06 21:34:18;;;;;;;13.00;11.70;;;6.90;80.70;;;;;;10496295;28;20298;-79
2023/03/06 21:39:21;;;;;;;13.60;12.30;;;7.00;81.30;;;;;;10535922;28;20254;-81
2023/03/06 21:44:24;;;;;;;14.40;13.00;;;7.00;81.40;;;;;;10463856;28;20629;-81
2023/03/06 21:49:26;;;;;;;13.50;12.23;;;7.00;82.30;;;;;;10497450;28;20231;-81
2023/03/06 21:54:29;;;;;;;14.40;13.03;;;6.90;82.40;;;;;;10528307;28;20263;-83
2023/03/06 21:59:31;;;;;;;15.37;13.77;;;6.90;83.10;;;;;;10506832;28;20289;-81
2023/03/06 22:04:33;;;;;;;14.90;13.30;;;6.90;83.00;;;;;;10505336;28;20651;-81
2023/03/06 22:09:38;;;;;;;14.33;12.80;;;6.80;83.60;;;;;;10505375;28;20689;-81
2023/03/06 22:14:40;;;;;;;13.70;12.30;;;6.80;83.30;;;;;;10483804;28;20205;-78
2023/03/06 22:19:42;;;;;;;15.87;14.17;;;6.80;83.90;;;;;;10527557;28;20229;-80
2023/03/06 22:24:47;;;;;;;16.03;13.47;;;6.80;83.60;;;;;;10504733;28;20202;-80
2023/03/06 22:29:49;;;;;;;13.73;12.10;;;6.70;84.10;;;;;;10506757;28;20217;-80
2023/03/06 22:34:51;;;;;;;17.50;13.87;;;6.70;83.70;;;;;;10495768;28;20299;-80
2023/03/06 22:39:54;;;;;;;18.90;13.37;;;6.70;83.70;;;;;;10488653;28;20710;-80
2023/03/06 22:44:56;;;;;;;14.93;12.87;;;6.70;84.00;;;;;;10542011;28;20212;-80
2023/03/06 22:49:58;;;;;;;14.53;13.03;;;6.70;84.20;;;;;;10471366;28;20222;-77
2023/03/06 22:55:02;;;;;;;15.00;13.50;;;6.70;83.60;;;;;;10506401;28;20209;-78
2023/03/06 23:00:09;;;;;;;15.13;13.63;;;6.70;83.30;;;;;;10538362;28;20268;-79
2023/03/06 23:05:11;;;;;;;15.83;13.83;;;6.70;83.50;;;;;;10499108;28;20292;-80
2023/03/06 23:10:15;;;;;;;15.60;14.00;;;6.70;82.80;;;;;;10504836;28;20298;-79
2023/03/06 23:15:36;;;;;;;14.23;12.77;;;6.60;83.70;;;;;;10536008;28;20203;-79
2023/03/06 23:20:57;;;;;;;14.80;13.30;;;6.60;83.50;;;;;;10498970;28;20236;-80
2023/03/06 23:26:22;;;;;;;14.37;12.90;;;6.60;83.80;;;;;;10443619;28;20271;-79
2023/03/06 23:31:27;;;;;;;13.30;11.90;;;6.60;83.60;;;;;;10555369;28;20193;-81
2023/03/06 23:36:30;;;;;;;14.00;12.60;;;6.60;83.30;;;;;;10553100;28;20226;-78
2023/03/06 23:41:33;;;;;;;14.30;12.80;;;6.60;82.90;;;;;;10499600;28;20229;-78
2023/03/06 23:46:35;;;;;;;13.83;12.47;;;6.60;83.50;;;;;;10513154;28;20215;-76
2023/03/06 23:51:38;;;;;;;14.47;13.07;;;6.50;83.70;;;;;;10477978;28;20280;-79
2023/03/06 23:56:41;;;;;;;14.17;12.80;;;6.50;83.90;;;;;;10510112;28;20232;-78
